createdAt,value
2018-03-30T00:02:03.142Z,33.97
2018-03-30T00:04:30.612Z,23.57
2018-03-30T00:07:12.957Z,23.33
2018-03-30T00:09:52.456Z,32.10
2018-03-30T00:12:19.949Z,22.67
2018-03-30T00:14:47.457Z,21.57
2018-03-30T00:17:14.937Z,22.40
2018-03-30T00:19:42.458Z,21.43
2018-03-30T00:22:09.934Z,31.03
2018-03-30T00:24:37.493Z,25.33
2018-03-30T00:27:04.945Z,21.40
2018-03-30T00:29:32.411Z,27.43
2018-03-30T00:31:59.910Z,24.47
2018-03-30T00:34:27.377Z,30.20
2018-03-30T00:36:54.833Z,28.17
2018-03-30T00:39:22.425Z,26.90
2018-03-30T00:41:49.892Z,26.47
2018-03-30T00:44:17.366Z,21.23
2018-03-30T00:46:44.867Z,24.40
2018-03-30T00:49:12.491Z,28.03
2018-03-30T00:51:39.960Z,28.13
2018-03-30T00:54:07.458Z,25.90
2018-03-30T00:56:34.919Z,24.90
2018-03-30T00:59:02.388Z,23.07
2018-03-30T01:01:29.910Z,22.83
2018-03-30T01:03:57.435Z,22.97
2018-03-30T01:06:24.900Z,25.37
2018-03-30T01:08:52.406Z,27.90
2018-03-30T01:11:19.896Z,35.90
2018-03-30T01:13:47.353Z,25.53
2018-03-30T01:16:14.895Z,30.03
2018-03-30T01:18:42.350Z,30.50
2018-03-30T01:21:09.821Z,31.00
2018-03-30T01:23:37.323Z,32.07
2018-03-30T01:26:04.790Z,30.73
2018-03-30T01:28:32.275Z,30.57
2018-03-30T01:30:59.759Z,31.93
2018-03-30T01:33:27.242Z,36.20
2018-03-30T01:35:54.693Z,41.40
2018-03-30T01:38:22.173Z,44.30
2018-03-30T01:40:49.649Z,36.83
2018-03-30T01:43:17.119Z,41.10
2018-03-30T01:45:44.593Z,42.57
2018-03-30T01:48:12.055Z,43.23
2018-03-30T01:50:39.537Z,38.70
2018-03-30T01:53:07.022Z,54.70
2018-03-30T01:55:34.474Z,43.13
2018-03-30T01:58:01.944Z,37.80
2018-03-30T02:00:29.424Z,44.30
2018-03-30T02:02:56.882Z,40.60
2018-03-30T02:05:24.355Z,44.40
2018-03-30T02:07:51.860Z,43.13
2018-03-30T02:10:19.341Z,50.50
2018-03-30T02:12:46.813Z,41.50
2018-03-30T02:15:14.299Z,37.67
2018-03-30T02:17:41.778Z,40.50
2018-03-30T02:20:09.250Z,37.90
2018-03-30T02:22:36.760Z,54.47
2018-03-30T02:25:04.302Z,51.07
2018-03-30T02:27:31.832Z,45.27
2018-03-30T02:29:59.337Z,40.73
2018-03-30T02:32:26.804Z,50.77
2018-03-30T02:34:54.276Z,50.20
2018-03-30T02:37:21.777Z,42.00
2018-03-30T02:39:49.343Z,49.80
2018-03-30T02:42:16.809Z,42.57
2018-03-30T02:44:44.311Z,42.63
2018-03-30T02:47:11.785Z,46.90
2018-03-30T02:49:39.266Z,44.60
2018-03-30T02:52:06.775Z,47.53
2018-03-30T02:54:34.242Z,46.23
2018-03-30T02:57:01.714Z,45.30
2018-03-30T02:59:29.309Z,42.97
2018-03-30T03:01:56.775Z,42.77
2018-03-30T03:04:24.246Z,48.80
2018-03-30T03:06:51.813Z,48.10
2018-03-30T03:09:19.299Z,44.63
2018-03-30T03:11:46.758Z,46.07
2018-03-30T03:14:14.245Z,56.27
2018-03-30T03:16:41.705Z,46.03
2018-03-30T03:19:09.195Z,44.70
2018-03-30T03:21:36.662Z,50.00
2018-03-30T03:24:04.131Z,43.63
2018-03-30T03:26:31.612Z,43.30
2018-03-30T03:28:59.092Z,46.27
2018-03-30T03:31:26.603Z,46.90
2018-03-30T03:33:54.113Z,41.50
2018-03-30T03:36:21.576Z,43.83
2018-03-30T03:38:49.038Z,50.03
2018-03-30T03:41:16.590Z,50.03
2018-03-30T03:43:44.047Z,52.10
2018-03-30T03:46:11.516Z,43.80
2018-03-30T03:48:39.005Z,45.20
2018-03-30T03:51:06.462Z,46.90
2018-03-30T03:53:33.981Z,48.20
2018-03-30T03:56:01.439Z,45.50
2018-03-30T03:58:28.894Z,50.63
2018-03-30T04:00:56.439Z,49.30
2018-03-30T04:03:23.915Z,47.70
2018-03-30T04:05:51.399Z,52.23
2018-03-30T04:08:18.889Z,48.77
2018-03-30T04:10:46.938Z,47.60
2018-03-30T04:13:14.423Z,46.23
2018-03-30T04:15:41.912Z,50.37
2018-03-30T04:18:09.370Z,41.43
2018-03-30T04:20:36.853Z,41.80
2018-03-30T04:23:04.327Z,40.40
2018-03-30T04:25:31.978Z,41.87
2018-03-30T04:27:59.893Z,40.63
2018-03-30T04:30:27.403Z,44.90
2018-03-30T04:32:54.932Z,45.33
2018-03-30T04:35:22.429Z,42.40
2018-03-30T04:37:49.903Z,41.57
2018-03-30T04:40:17.379Z,43.73
2018-03-30T04:42:44.866Z,45.97
2018-03-30T04:45:12.325Z,47.83
2018-03-30T04:47:39.802Z,43.60
2018-03-30T04:50:07.314Z,40.37
2018-03-30T04:52:34.770Z,38.37
2018-03-30T04:55:02.230Z,37.13
2018-03-30T04:57:29.703Z,39.20
2018-03-30T04:59:57.185Z,35.33
2018-03-30T05:02:24.757Z,36.73
2018-03-30T05:04:52.218Z,37.20
2018-03-30T05:07:19.718Z,41.00
2018-03-30T05:09:47.198Z,36.23
2018-03-30T05:12:14.678Z,32.60
2018-03-30T05:14:42.214Z,39.40
2018-03-30T05:17:09.682Z,36.77
2018-03-30T05:19:37.226Z,31.67
2018-03-30T05:22:04.722Z,28.47
2018-03-30T05:24:32.202Z,30.97
2018-03-30T05:26:59.666Z,39.47
2018-03-30T05:29:27.154Z,32.10
2018-03-30T05:31:54.622Z,33.43
2018-03-30T05:34:22.096Z,42.53
2018-03-30T05:36:49.574Z,31.50
2018-03-30T05:39:17.059Z,30.33
2018-03-30T05:41:44.547Z,27.90
2018-03-30T05:44:12.117Z,28.80
2018-03-30T05:46:39.583Z,25.37
2018-03-30T05:49:07.067Z,30.30
2018-03-30T05:51:34.567Z,28.40
2018-03-30T05:54:02.035Z,28.17
2018-03-30T05:56:29.515Z,29.13
2018-03-30T05:58:56.995Z,26.37
2018-03-30T06:01:24.512Z,25.37
2018-03-30T06:03:52.071Z,25.30
2018-03-30T06:06:19.547Z,24.40
2018-03-30T06:08:47.017Z,17.23
2018-03-30T06:11:14.556Z,19.40
2018-03-30T06:13:42.077Z,16.13
2018-03-30T06:16:09.621Z,17.17
2018-03-30T06:18:37.091Z,16.57
2018-03-30T06:21:04.570Z,11.83
2018-03-30T06:23:32.046Z,13.50
2018-03-30T06:28:33.331Z,16.77
2018-03-30T06:31:00.851Z,13.50
2018-03-30T06:33:28.414Z,14.10
2018-03-30T06:35:55.899Z,16.93
2018-03-30T06:38:23.370Z,16.93
2018-03-30T06:40:50.830Z,18.17
2018-03-30T06:43:18.334Z,16.53
2018-03-30T06:45:45.802Z,18.97
2018-03-30T06:48:13.361Z,16.30
2018-03-30T06:50:40.852Z,17.50
2018-03-30T06:53:08.350Z,27.60
2018-03-30T06:55:35.844Z,20.77
2018-03-30T06:58:03.323Z,18.70
2018-03-30T07:00:30.793Z,22.90
2018-03-30T07:02:58.358Z,29.60
2018-03-30T07:05:25.832Z,15.43
2018-03-30T07:07:53.425Z,15.23
2018-03-30T07:10:20.984Z,24.20
2018-03-30T07:12:48.455Z,18.57
2018-03-30T07:15:15.962Z,17.93
2018-03-30T07:17:43.439Z,17.90
2018-03-30T07:20:10.907Z,21.73
2018-03-30T07:22:38.382Z,27.93
2018-03-30T07:25:05.960Z,27.20
2018-03-30T07:27:33.434Z,20.87
2018-03-30T07:30:00.950Z,19.53
2018-03-30T07:32:28.411Z,24.97
2018-03-30T07:34:55.886Z,18.40
2018-03-30T07:37:23.419Z,20.73
2018-03-30T07:39:50.881Z,21.13
2018-03-30T07:42:18.343Z,23.13
2018-03-30T07:44:45.835Z,24.67
2018-03-30T07:47:13.306Z,23.13
2018-03-30T07:49:40.876Z,27.00
2018-03-30T07:52:08.398Z,16.50
2018-03-30T07:54:35.898Z,24.80
2018-03-30T07:57:03.350Z,26.13
2018-03-30T07:59:30.941Z,25.70
2018-03-30T08:01:58.402Z,21.93
2018-03-30T08:04:25.865Z,21.33
2018-03-30T08:06:53.422Z,23.73
2018-03-30T08:09:20.883Z,24.73
2018-03-30T08:11:48.358Z,23.00
2018-03-30T08:14:15.831Z,22.53
2018-03-30T08:16:43.295Z,25.30
2018-03-30T08:19:10.791Z,41.07
2018-03-30T08:21:38.275Z,36.73
2018-03-30T08:24:05.745Z,23.73
2018-03-30T08:26:33.230Z,24.50
2018-03-30T08:29:00.703Z,22.37
2018-03-30T08:31:28.201Z,21.43
2018-03-30T08:33:55.746Z,21.37
2018-03-30T08:36:23.202Z,22.80
2018-03-30T08:38:50.699Z,20.10
2018-03-30T08:41:18.161Z,22.60
2018-03-30T08:43:45.682Z,19.07
2018-03-30T08:46:13.172Z,22.43
2018-03-30T08:48:40.633Z,25.83
2018-03-30T08:51:08.306Z,31.70
2018-03-30T08:53:35.813Z,26.77
2018-03-30T08:56:03.270Z,24.27
2018-03-30T08:58:30.739Z,28.00
2018-03-30T09:00:58.209Z,25.60
2018-03-30T09:03:25.775Z,25.00
2018-03-30T09:05:53.260Z,25.27
2018-03-30T09:08:20.766Z,31.60
2018-03-30T09:10:48.235Z,30.57
2018-03-30T09:13:15.739Z,36.90
2018-03-30T09:15:43.330Z,33.20
2018-03-30T09:18:10.786Z,25.13
2018-03-30T09:20:38.282Z,26.40
2018-03-30T09:23:05.857Z,24.83
2018-03-30T09:25:33.455Z,21.80
2018-03-30T09:28:00.916Z,26.67
2018-03-30T09:30:28.367Z,27.47
2018-03-30T09:32:55.846Z,26.87
2018-03-30T09:35:23.306Z,36.20
2018-03-30T09:37:50.819Z,26.93
2018-03-30T09:40:18.316Z,27.17
2018-03-30T09:42:45.779Z,24.73
2018-03-30T09:45:13.436Z,26.20
2018-03-30T09:47:40.905Z,24.40
2018-03-30T09:50:08.363Z,26.10
2018-03-30T09:52:35.894Z,29.53
2018-03-30T09:55:03.355Z,34.23
2018-03-30T09:57:30.926Z,31.90
2018-03-30T09:59:58.716Z,30.27
2018-03-30T10:02:29.032Z,32.63
2018-03-30T10:05:01.546Z,29.63
2018-03-30T10:07:29.006Z,27.90
2018-03-30T10:09:56.486Z,25.93
2018-03-30T10:12:24.023Z,29.57
2018-03-30T10:14:51.547Z,31.47
2018-03-30T10:17:19.013Z,28.40
2018-03-30T10:19:46.490Z,32.93
2018-03-30T10:22:13.998Z,29.03
2018-03-30T10:24:41.462Z,28.50
2018-03-30T10:27:08.971Z,38.03
2018-03-30T10:29:36.472Z,26.00
2018-03-30T10:32:03.935Z,32.27
2018-03-30T10:34:31.423Z,28.97
2018-03-30T10:36:58.972Z,27.40
2018-03-30T10:39:26.501Z,32.37
2018-03-30T10:41:53.982Z,39.97
2018-03-30T10:44:21.434Z,31.10
2018-03-30T10:46:48.929Z,35.10
2018-03-30T10:49:16.411Z,31.13
2018-03-30T10:51:43.936Z,26.87
2018-03-30T10:54:11.387Z,26.60
2018-03-30T10:56:38.898Z,28.00
2018-03-30T10:59:06.354Z,25.83
2018-03-30T11:01:33.823Z,26.53
2018-03-30T11:04:01.370Z,28.43
2018-03-30T11:06:28.826Z,29.03
2018-03-30T11:08:56.390Z,32.23
2018-03-30T11:11:23.862Z,24.90
2018-03-30T11:13:51.330Z,29.33
2018-03-30T11:16:18.826Z,26.63
2018-03-30T11:18:46.302Z,22.17
2018-03-30T11:21:13.773Z,25.13
2018-03-30T11:23:41.246Z,26.77
2018-03-30T11:26:08.710Z,24.37
2018-03-30T11:28:36.255Z,24.83
2018-03-30T11:31:03.746Z,28.03
2018-03-30T11:33:31.218Z,30.90
2018-03-30T11:35:58.697Z,25.53
2018-03-30T11:38:26.167Z,26.50
2018-03-30T11:40:53.650Z,24.83
2018-03-30T11:43:21.216Z,25.00
2018-03-30T11:45:48.755Z,25.73
2018-03-30T11:48:16.248Z,27.40
2018-03-30T11:50:43.737Z,36.90
2018-03-30T11:53:11.239Z,25.23
2018-03-30T11:55:38.787Z,26.43
2018-03-30T11:58:06.246Z,23.00
2018-03-30T12:00:33.703Z,25.60
2018-03-30T12:03:01.208Z,34.63
2018-03-30T12:05:28.727Z,27.57
2018-03-30T12:07:56.269Z,20.03
2018-03-30T12:10:23.747Z,26.87
2018-03-30T12:12:51.306Z,26.60
2018-03-30T12:15:18.785Z,22.30
2018-03-30T12:17:46.245Z,24.70
2018-03-30T12:20:13.711Z,23.17
2018-03-30T12:22:41.695Z,22.77
2018-03-30T12:25:09.263Z,22.40
2018-03-30T12:27:36.736Z,22.50
2018-03-30T12:30:04.219Z,20.43
2018-03-30T12:32:31.688Z,22.90
2018-03-30T12:34:59.251Z,24.10
2018-03-30T12:37:26.742Z,26.90
2018-03-30T12:39:54.292Z,22.77
2018-03-30T12:42:21.804Z,23.03
2018-03-30T12:44:50.094Z,27.27
2018-03-30T12:47:17.656Z,22.00
2018-03-30T12:49:45.214Z,19.70
2018-03-30T12:52:12.666Z,22.37
2018-03-30T12:54:40.144Z,21.13
2018-03-30T12:57:07.955Z,24.87
2018-03-30T12:59:35.466Z,20.90
2018-03-30T13:02:02.957Z,19.70
2018-03-30T13:04:30.416Z,20.00
2018-03-30T13:06:57.932Z,29.90
2018-03-30T13:09:25.508Z,21.03
2018-03-30T13:11:53.066Z,21.27
2018-03-30T13:14:20.697Z,19.80
2018-03-30T13:16:48.321Z,18.13
2018-03-30T13:19:15.788Z,18.03
2018-03-30T13:21:43.310Z,24.30
2018-03-30T13:24:10.802Z,21.43
2018-03-30T13:26:38.296Z,20.77
2018-03-30T13:29:05.794Z,20.10
2018-03-30T13:31:33.319Z,16.70
2018-03-30T13:34:00.828Z,13.00
2018-03-30T13:36:28.374Z,22.63
2018-03-30T13:38:55.834Z,20.70
2018-03-30T13:41:23.313Z,22.40
2018-03-30T13:43:50.803Z,18.60
2018-03-30T13:46:18.307Z,18.43
2018-03-30T13:48:45.769Z,17.63
2018-03-30T13:51:17.969Z,25.73
2018-03-30T13:53:51.380Z,19.23
2018-03-30T13:56:18.913Z,22.70
2018-03-30T13:58:50.214Z,17.23
2018-03-30T14:01:19.586Z,18.47
2018-03-30T14:03:49.016Z,17.57
2018-03-30T14:06:31.015Z,18.53
2018-03-30T14:12:13.988Z,20.17
2018-03-30T14:14:41.598Z,17.93
2018-03-30T14:17:15.074Z,14.37
2018-03-30T14:19:42.659Z,19.40
2018-03-30T14:22:14.802Z,20.47
2018-03-30T14:27:52.085Z,15.63
2018-03-30T14:30:24.465Z,22.23
2018-03-30T14:32:51.958Z,15.47
2018-03-30T14:35:24.354Z,19.97
2018-03-30T14:37:52.442Z,18.00
2018-03-30T14:40:34.792Z,19.33
2018-03-30T14:43:06.165Z,19.43
2018-03-30T14:45:35.558Z,18.77
2018-03-30T14:48:12.053Z,19.37
2018-03-30T14:53:42.578Z,27.07
2018-03-30T14:56:12.903Z,23.20
2018-03-30T14:58:47.019Z,16.90
2018-03-30T15:01:18.168Z,18.30
2018-03-30T15:03:56.469Z,17.90
2018-03-30T15:06:33.935Z,18.47
2018-03-30T15:12:21.335Z,30.17
2018-03-30T15:14:50.406Z,20.63
2018-03-30T15:17:28.476Z,19.17
2018-03-30T15:19:56.709Z,16.53
2018-03-30T15:22:28.281Z,17.30
2018-03-30T15:24:57.466Z,21.27
2018-03-30T15:27:37.658Z,15.87
2018-03-30T15:30:11.033Z,17.97
2018-03-30T15:35:42.968Z,20.23
2018-03-30T15:38:10.465Z,22.70
2018-03-30T15:40:37.947Z,17.70
2018-03-30T15:43:07.931Z,22.90
2018-03-30T15:45:37.130Z,18.87
2018-03-30T15:48:04.970Z,20.93
2018-03-30T15:50:32.471Z,23.70
2018-03-30T15:52:59.942Z,22.00
2018-03-30T15:55:27.434Z,21.00
2018-03-30T15:57:54.897Z,23.43
2018-03-30T16:00:22.381Z,18.23
2018-03-30T16:02:49.877Z,20.50
2018-03-30T16:05:17.350Z,19.63
2018-03-30T16:07:44.818Z,17.60
2018-03-30T16:12:50.616Z,28.83
2018-03-30T16:15:18.086Z,24.13
2018-03-30T16:17:45.567Z,23.23
2018-03-30T16:20:12.514Z,25.73
2018-03-30T16:22:39.433Z,19.03
2018-03-30T16:25:06.374Z,18.00
2018-03-30T16:27:33.321Z,14.07
2018-03-30T16:30:00.254Z,21.70
2018-03-30T16:32:27.225Z,16.07
2018-03-30T16:34:54.159Z,16.67
2018-03-30T16:37:21.179Z,20.13
2018-03-30T16:39:48.124Z,20.03
2018-03-30T16:42:15.129Z,21.20
2018-03-30T16:44:42.078Z,23.07
2018-03-30T16:47:08.998Z,16.30
2018-03-30T16:49:36.003Z,16.03
2018-03-30T16:52:02.923Z,17.77
2018-03-30T16:54:30.171Z,13.20
2018-03-30T16:56:57.115Z,13.80
2018-03-30T16:59:24.026Z,16.83
2018-03-30T17:01:50.947Z,15.40
2018-03-30T17:04:17.926Z,10.33
2018-03-30T17:06:44.926Z,19.23
2018-03-30T17:09:11.889Z,12.27
2018-03-30T17:11:38.830Z,11.80
2018-03-30T17:14:05.764Z,9.63
2018-03-30T17:16:32.721Z,13.63
2018-03-30T17:18:59.668Z,14.53
2018-03-30T17:21:26.578Z,10.33
2018-03-30T17:23:53.515Z,11.63
2018-03-30T17:26:20.482Z,13.60
2018-03-30T17:28:47.389Z,11.60
2018-03-30T17:31:14.306Z,12.97
2018-03-30T17:33:41.251Z,11.00
2018-03-30T17:36:08.166Z,11.00
2018-03-30T17:38:35.091Z,14.30
2018-03-30T17:41:02.163Z,12.53
2018-03-30T17:43:29.091Z,12.40
2018-03-30T17:45:56.006Z,9.43
2018-03-30T17:48:22.997Z,8.70
2018-03-30T17:50:49.987Z,9.37
2018-03-30T17:53:16.910Z,11.77
2018-03-30T17:55:43.864Z,12.37
2018-03-30T17:58:10.786Z,13.90
2018-03-30T18:00:37.705Z,9.37
2018-03-30T18:03:04.677Z,13.03
2018-03-30T18:05:31.592Z,9.13
2018-03-30T18:07:58.522Z,10.87
2018-03-30T18:10:25.485Z,13.73
2018-03-30T18:12:52.410Z,13.33
2018-03-30T18:15:19.344Z,11.00
2018-03-30T18:17:46.295Z,11.70
2018-03-30T18:20:13.205Z,9.97
2018-03-30T18:22:40.147Z,16.47
2018-03-30T18:25:07.084Z,9.03
2018-03-30T18:27:34.003Z,7.90
2018-03-30T18:30:00.949Z,33.87
2018-03-30T18:32:27.898Z,9.90
2018-03-30T18:34:54.897Z,8.87
2018-03-30T18:37:21.844Z,12.30
2018-03-30T18:39:48.828Z,9.57
2018-03-30T18:42:15.756Z,15.73
2018-03-30T18:44:42.676Z,13.77
2018-03-30T18:47:09.664Z,16.30
2018-03-30T18:49:36.601Z,11.00
2018-03-30T18:52:03.520Z,13.70
2018-03-30T18:54:30.459Z,17.87
2018-03-30T18:56:57.400Z,11.60
2018-03-30T18:59:24.410Z,20.80
2018-03-30T19:01:51.363Z,11.83
2018-03-30T19:04:18.280Z,14.23
2018-03-30T19:06:45.474Z,13.20
2018-03-30T19:09:12.406Z,12.90
2018-03-30T19:11:39.340Z,17.57
2018-03-30T19:14:06.301Z,14.83
2018-03-30T19:16:33.229Z,16.27
2018-03-30T19:19:00.142Z,14.17
2018-03-30T19:21:27.124Z,15.30
2018-03-30T19:23:54.048Z,16.80
2018-03-30T19:26:20.975Z,14.43
2018-03-30T19:28:47.964Z,8.73
2018-03-30T19:31:14.882Z,11.83
2018-03-30T19:33:41.826Z,12.70
2018-03-30T19:36:09.126Z,9.70
2018-03-30T19:38:36.069Z,13.57
2018-03-30T19:41:03.097Z,14.00
2018-03-30T19:43:30.178Z,14.60
2018-03-30T19:45:57.102Z,18.17
2018-03-30T19:48:24.045Z,13.17
2018-03-30T19:50:50.989Z,19.80
2018-03-30T19:53:17.922Z,15.80
2018-03-30T19:55:44.874Z,12.73
2018-03-30T19:58:11.814Z,11.60
2018-03-30T20:00:38.739Z,17.00
2018-03-30T20:03:05.734Z,11.93
2018-03-30T20:05:32.698Z,19.53
2018-03-30T20:07:59.623Z,10.60
2018-03-30T20:10:26.637Z,20.33
2018-03-30T20:12:53.563Z,17.07
2018-03-30T20:15:20.478Z,17.77
2018-03-30T20:17:47.422Z,14.40
2018-03-30T20:20:14.352Z,13.97
2018-03-30T20:22:41.270Z,17.70
2018-03-30T20:25:08.216Z,18.77
2018-03-30T20:27:35.148Z,18.47
2018-03-30T20:30:02.103Z,13.53
2018-03-30T20:32:29.060Z,16.60
2018-03-30T20:34:55.974Z,18.60
2018-03-30T20:37:22.931Z,15.70
2018-03-30T20:39:49.858Z,12.80
2018-03-30T20:42:16.782Z,75.40
2018-03-30T20:44:43.714Z,9.60
2018-03-30T20:47:10.658Z,11.33
2018-03-30T20:49:37.592Z,9.90
2018-03-30T20:52:04.633Z,14.70
2018-03-30T20:54:31.604Z,14.80
2018-03-30T20:56:58.543Z,17.17
2018-03-30T20:59:25.560Z,14.47
2018-03-30T21:01:52.496Z,12.33
2018-03-30T21:04:19.410Z,12.20
2018-03-30T21:06:46.380Z,14.13
2018-03-30T21:09:13.368Z,13.00
2018-03-30T21:11:40.302Z,15.23
2018-03-30T21:14:07.283Z,14.13
2018-03-30T21:16:34.217Z,10.60
2018-03-30T21:19:01.151Z,15.57
2018-03-30T21:21:28.095Z,23.93
2018-03-30T21:23:55.021Z,19.03
2018-03-30T21:26:21.982Z,18.27
2018-03-30T21:28:48.919Z,20.73
2018-03-30T21:31:15.851Z,16.63
2018-03-30T21:33:42.797Z,23.43
2018-03-30T21:36:09.722Z,18.83
2018-03-30T21:38:36.641Z,17.93
2018-03-30T21:41:03.590Z,17.83
2018-03-30T21:43:30.513Z,21.40
2018-03-30T21:45:57.426Z,32.13
2018-03-30T21:48:24.365Z,24.47
2018-03-30T21:50:51.289Z,24.30
2018-03-30T21:53:18.231Z,15.10
2018-03-30T21:55:45.176Z,9.93
2018-03-30T21:58:12.180Z,18.43
2018-03-30T22:00:39.107Z,24.47
2018-03-30T22:03:06.029Z,19.23
2018-03-30T22:05:33.719Z,16.43
2018-03-30T22:08:00.641Z,20.97
2018-03-30T22:10:27.760Z,18.43
2018-03-30T22:12:54.679Z,19.23
2018-03-30T22:15:21.610Z,20.03
2018-03-30T22:17:48.587Z,36.77
2018-03-30T22:20:15.516Z,15.07
2018-03-30T22:22:42.498Z,19.93
2018-03-30T22:25:09.418Z,17.53
2018-03-30T22:27:36.347Z,18.00
2018-03-30T22:30:03.296Z,21.40
2018-03-30T22:32:30.239Z,24.83
2018-03-30T22:34:57.245Z,36.53
2018-03-30T22:37:24.254Z,18.27
2018-03-30T22:39:51.181Z,17.00
2018-03-30T22:42:18.092Z,14.00
2018-03-30T22:44:45.042Z,21.40
2018-03-30T22:47:12.054Z,18.23
2018-03-30T22:49:39.074Z,49.47
2018-03-30T22:52:06.017Z,18.67
2018-03-30T22:54:32.962Z,22.30
2018-03-30T22:57:00.058Z,54.80
2018-03-30T22:59:27.004Z,13.40
2018-03-30T23:01:53.929Z,38.37
2018-03-30T23:04:20.904Z,16.20
2018-03-30T23:06:47.916Z,18.30
2018-03-30T23:09:14.833Z,22.27
2018-03-30T23:11:41.783Z,25.00
2018-03-30T23:14:08.702Z,23.47
2018-03-30T23:16:36.039Z,25.43
2018-03-30T23:19:03.054Z,21.00
2018-03-30T23:21:29.970Z,21.23
2018-03-30T23:23:56.907Z,17.60
2018-03-30T23:26:23.854Z,19.00
2018-03-30T23:28:50.787Z,15.60
2018-03-30T23:31:17.994Z,18.23
2018-03-30T23:33:45.019Z,14.10
2018-03-30T23:36:11.983Z,18.50
2018-03-30T23:38:38.922Z,21.40
2018-03-30T23:41:06.008Z,16.53
2018-03-30T23:43:33.100Z,11.33
2018-03-30T23:46:00.101Z,21.13
2018-03-30T23:48:27.056Z,15.97
2018-03-30T23:50:54.051Z,21.00
2018-03-30T23:53:21.022Z,16.10
2018-03-30T23:55:47.974Z,11.03
2018-03-30T23:58:14.933Z,23.27
